Time;durP1;ratioP1;P1;durP2;ratioP2;P2;SDS_P1;SDS_P2;PMS_P1;PMS_P2;Temp;Humidity;BMP_temperature;BMP_pressure;BME280_temperature;BME280_humidity;BME280_pressure;Samples;Min_cycle;Max_cycle;Signal;HPM_P1;HPM_P2
2023/10/14 00:01:26;;;;;;;4.97;1.42;;;9.90;99.90;;;;;;5025195;28;20029;-52
2023/10/14 00:03:51;;;;;;;4.82;0.90;;;9.80;99.90;;;;;;5051312;28;20390;-53
2023/10/14 00:06:18;;;;;;;3.05;1.05;;;9.80;99.90;;;;;;5028903;28;20540;-51
2023/10/14 00:11:42;;;;;;;3.00;1.00;;;9.80;99.90;;;;;;5028685;28;20025;-48
2023/10/14 00:14:15;;;;;;;5.07;0.82;;;9.80;99.90;;;;;;5028641;28;20029;-54
2023/10/14 00:16:48;;;;;;;7.50;1.00;;;9.80;99.90;;;;;;5029508;28;20356;-49
2023/10/14 00:19:14;;;;;;;2.50;0.90;;;9.80;99.90;;;;;;5029123;28;20107;-55
2023/10/14 00:21:42;;;;;;;2.88;1.00;;;9.70;99.90;;;;;;5030295;28;20030;-51
2023/10/14 00:24:08;;;;;;;7.55;1.27;;;9.70;99.90;;;;;;5031136;28;20435;-52
2023/10/14 00:26:34;;;;;;;5.15;1.20;;;9.70;99.90;;;;;;5034137;28;20033;-55
2023/10/14 00:31:46;;;;;;;4.47;0.90;;;9.60;99.90;;;;;;5033266;28;20053;-53
2023/10/14 00:34:14;;;;;;;2.47;1.13;;;9.60;99.90;;;;;;5024918;28;20393;-49
2023/10/14 00:36:40;;;;;;;7.47;1.25;;;9.60;99.90;;;;;;5033375;28;20033;-51
2023/10/14 00:39:12;;;;;;;5.55;1.10;;;9.60;99.90;;;;;;5021715;28;20511;-57
2023/10/14 00:41:42;;;;;;;3.80;1.02;;;9.60;99.90;;;;;;5034330;28;20030;-58
2023/10/14 00:44:09;;;;;;;4.43;1.00;;;9.40;99.90;;;;;;5022808;28;20109;-57
2023/10/14 00:46:36;;;;;;;3.47;1.40;;;9.50;99.90;;;;;;5030854;28;20037;-50
2023/10/14 00:49:04;;;;;;;3.83;1.13;;;9.50;99.90;;;;;;5031851;28;20033;-53
2023/10/14 00:51:33;;;;;;;2.63;0.97;;;9.40;99.90;;;;;;5034067;28;20563;-50
2023/10/14 00:54:03;;;;;;;9.23;1.05;;;9.40;99.90;;;;;;5034059;28;20033;-56
2023/10/14 00:56:31;;;;;;;3.25;0.82;;;9.40;99.90;;;;;;5032074;28;20029;-54
2023/10/14 00:58:59;;;;;;;2.05;0.80;;;9.30;99.90;;;;;;5022520;28;20033;-53
2023/10/14 01:01:28;;;;;;;4.65;1.25;;;9.30;99.90;;;;;;5032155;28;20048;-52
2023/10/14 01:04:05;;;;;;;5.97;0.98;;;9.30;99.90;;;;;;5028197;28;20025;-55
2023/10/14 01:06:34;;;;;;;8.18;1.42;;;9.30;99.90;;;;;;5033678;28;20052;-57
2023/10/14 01:09:17;;;;;;;5.90;0.82;;;9.30;99.90;;;;;;5033455;28;20075;-57
2023/10/14 01:11:42;;;;;;;7.72;1.02;;;9.30;99.90;;;;;;5032161;28;20029;-59
2023/10/14 01:14:08;;;;;;;2.90;0.90;;;9.20;99.90;;;;;;5033953;28;20056;-57
2023/10/14 01:16:37;;;;;;;3.97;0.98;;;9.30;99.90;;;;;;5031877;28;20437;-52
2023/10/14 01:19:05;;;;;;;4.00;1.20;;;9.20;99.90;;;;;;5031505;28;20048;-52
2023/10/14 01:21:38;;;;;;;5.18;1.33;;;9.20;99.90;;;;;;5033315;28;20033;-50
2023/10/14 01:24:15;;;;;;;5.90;1.00;;;9.20;99.90;;;;;;5028857;28;20030;-46
2023/10/14 01:26:50;;;;;;;6.05;0.73;;;9.10;99.90;;;;;;5033341;28;20026;-54
2023/10/14 01:29:17;;;;;;;2.53;1.00;;;9.10;99.90;;;;;;5031539;28;20112;-57
2023/10/14 01:32:10;;;;;;;3.72;0.98;;;9.10;99.90;;;;;;5023653;28;20061;-54
2023/10/14 01:34:42;;;;;;;3.47;1.38;;;9.00;99.90;;;;;;5014410;28;20080;-51
2023/10/14 01:37:15;;;;;;;9.80;1.30;;;8.90;99.90;;;;;;5031463;28;20563;-55
2023/10/14 01:39:48;;;;;;;6.65;1.13;;;9.00;99.90;;;;;;5033603;28;20037;-56
2023/10/14 01:42:15;;;;;;;6.65;0.85;;;8.90;99.90;;;;;;5021183;28;20438;-59
2023/10/14 01:44:41;;;;;;;2.97;0.70;;;9.00;99.90;;;;;;5032937;28;20388;-55
2023/10/14 01:47:07;;;;;;;4.00;0.98;;;9.00;99.90;;;;;;5028606;28;20021;-49
2023/10/14 01:49:36;;;;;;;4.03;0.93;;;9.00;99.90;;;;;;5032746;28;20108;-49
2023/10/14 01:52:05;;;;;;;1.70;0.70;;;9.00;99.90;;;;;;5029482;28;20232;-47
2023/10/14 01:54:31;;;;;;;4.90;0.85;;;9.10;99.90;;;;;;5032015;28;20112;-49
2023/10/14 01:56:59;;;;;;;3.90;1.00;;;9.00;99.90;;;;;;5031060;28;20104;-53
2023/10/14 01:59:27;;;;;;;3.40;1.00;;;9.00;99.90;;;;;;5030499;28;20032;-54
2023/10/14 02:01:57;;;;;;;5.25;1.48;;;9.00;99.90;;;;;;5028979;28;20037;-53
2023/10/14 02:04:23;;;;;;;2.83;0.77;;;9.00;99.90;;;;;;5018761;28;20036;-53
2023/10/14 02:07:03;;;;;;;4.72;0.68;;;9.00;99.90;;;;;;5031139;28;20029;-54
2023/10/14 02:09:30;;;;;;;3.20;0.98;;;9.00;99.90;;;;;;5030656;28;20039;-52
2023/10/14 02:11:56;;;;;;;2.25;0.70;;;9.00;99.90;;;;;;5024291;28;20017;-57
2023/10/14 02:14:22;;;;;;;2.83;0.70;;;8.90;99.90;;;;;;5027279;28;20472;-50
2023/10/14 02:16:48;;;;;;;4.00;0.82;;;8.90;99.90;;;;;;5031246;28;20033;-53
2023/10/14 02:21:57;;;;;;;6.22;1.25;;;8.90;99.90;;;;;;5030340;28;20021;-57
2023/10/14 02:24:25;;;;;;;3.83;0.65;;;8.90;99.90;;;;;;5032292;28;20026;-52
2023/10/14 02:26:51;;;;;;;4.03;1.00;;;8.90;99.90;;;;;;5031337;28;20060;-58
2023/10/14 02:29:17;;;;;;;4.25;1.38;;;8.90;99.90;;;;;;5030643;28;20075;-59
2023/10/14 02:31:45;;;;;;;2.58;1.05;;;8.80;99.90;;;;;;5031808;28;20073;-55
2023/10/14 02:34:11;;;;;;;2.85;0.77;;;8.80;99.90;;;;;;5027312;28;20528;-51
2023/10/14 02:37:05;;;;;;;1.80;0.70;;;8.80;99.90;;;;;;5025937;28;20121;-56
2023/10/14 02:39:27;;;;;;;2.40;0.80;;;8.90;99.90;;;;;;5030532;28;20037;-52
2023/10/14 02:42:00;;;;;;;2.65;0.90;;;8.70;99.90;;;;;;5031655;28;20030;-58
2023/10/14 02:44:32;;;;;;;2.55;0.77;;;8.70;99.90;;;;;;5030274;28;20422;-59
2023/10/14 02:47:05;;;;;;;3.60;0.70;;;8.70;99.90;;;;;;5019000;28;20030;-55
2023/10/14 02:49:37;;;;;;;3.20;0.80;;;8.70;99.90;;;;;;5025662;28;20038;-51
2023/10/14 02:52:08;;;;;;;2.58;0.60;;;8.60;99.90;;;;;;5030376;28;20022;-53
2023/10/14 02:54:34;;;;;;;5.60;1.17;;;8.60;99.90;;;;;;5028602;28;20033;-50
2023/10/14 02:57:01;;;;;;;1.27;0.88;;;8.50;99.90;;;;;;5031843;28;20178;-54
2023/10/14 03:02:15;;;;;;;1.98;0.93;;;8.50;99.90;;;;;;5031520;28;20029;-53
2023/10/14 03:07:29;;;;;;;3.72;0.70;;;8.50;99.90;;;;;;5026590;28;20021;-50
2023/10/14 03:12:57;;;;;;;2.72;0.90;;;8.50;99.90;;;;;;5006793;28;20038;-52
2023/10/14 03:15:23;;;;;;;5.95;1.00;;;8.50;99.90;;;;;;5029941;28;20041;-53
2023/10/14 03:17:55;;;;;;;9.00;1.25;;;8.60;99.90;;;;;;5031076;28;20029;-50
2023/10/14 03:23:24;;;;;;;6.25;1.08;;;8.60;99.90;;;;;;5029498;28;20104;-55
2023/10/14 03:26:01;;;;;;;5.50;0.80;;;8.60;99.90;;;;;;5030512;28;20447;-49
2023/10/14 03:28:27;;;;;;;3.88;1.10;;;8.60;99.90;;;;;;5031571;28;20033;-50
2023/10/14 03:31:00;;;;;;;5.63;0.90;;;8.50;99.90;;;;;;5029217;28;20049;-53
2023/10/14 03:33:29;;;;;;;2.03;0.70;;;8.60;99.90;;;;;;5029107;28;20518;-56
2023/10/14 03:35:57;;;;;;;4.90;0.95;;;8.50;99.90;;;;;;5030900;28;20032;-53
2023/10/14 03:41:21;;;;;;;4.82;0.90;;;8.60;99.90;;;;;;5021310;28;20088;-51
2023/10/14 03:47:04;;;;;;;6.72;0.80;;;8.60;99.90;;;;;;5028087;28;20037;-57
2023/10/14 03:49:25;;;;;;;3.35;0.85;;;8.50;99.90;;;;;;5022653;28;20041;-57
2023/10/14 03:51:56;;;;;;;6.65;1.00;;;8.50;99.90;;;;;;5030859;28;20033;-58
2023/10/14 03:54:31;;;;;;;3.03;1.30;;;8.50;99.90;;;;;;5027176;28;20419;-57
2023/10/14 03:57:03;;;;;;;1.35;0.70;;;8.60;99.90;;;;;;5026563;28;20029;-57
2023/10/14 03:59:33;;;;;;;5.93;1.30;;;8.60;99.90;;;;;;5030065;28;20025;-57
2023/10/14 04:02:01;;;;;;;3.67;0.73;;;8.50;99.90;;;;;;5030165;28;20040;-58
2023/10/14 04:04:29;;;;;;;2.58;1.00;;;8.40;99.90;;;;;;5026659;28;20473;-58
2023/10/14 04:09:24;;;;;;;4.25;0.77;;;8.50;99.90;;;;;;5015686;28;20720;-56
2023/10/14 04:11:55;;;;;;;3.20;0.90;;;8.40;99.90;;;;;;5024675;28;20040;-57
2023/10/14 04:14:22;;;;;;;4.53;0.95;;;8.40;99.90;;;;;;5030587;28;20067;-52
2023/10/14 04:16:50;;;;;;;8.65;1.00;;;8.40;99.90;;;;;;5029001;28;20032;-54
2023/10/14 04:22:27;;;;;;;2.72;0.80;;;8.30;99.90;;;;;;5018661;28;20041;-57
2023/10/14 04:25:07;;;;;;;3.97;1.00;;;8.30;99.90;;;;;;5026253;28;20049;-59
2023/10/14 04:27:36;;;;;;;3.70;1.33;;;8.30;99.90;;;;;;5030304;28;20032;-56
2023/10/14 04:30:20;;;;;;;3.95;0.82;;;8.20;99.90;;;;;;5030241;28;20033;-55
2023/10/14 04:32:47;;;;;;;6.47;1.17;;;8.20;99.90;;;;;;5029295;28;20060;-56
2023/10/14 04:35:15;;;;;;;3.05;1.00;;;8.20;99.90;;;;;;5030273;28;20045;-57
2023/10/14 04:37:52;;;;;;;2.25;0.77;;;8.20;99.90;;;;;;5021622;28;20015;-56
2023/10/14 04:40:41;;;;;;;11.10;1.15;;;8.20;99.90;;;;;;5017897;28;20029;-54
2023/10/14 04:45:52;;;;;;;2.75;0.68;;;8.20;99.90;;;;;;5021234;28;20033;-54
2023/10/14 04:48:27;;;;;;;2.80;0.93;;;8.10;99.90;;;;;;5022137;28;20028;-51
2023/10/14 04:51:00;;;;;;;6.53;1.30;;;8.20;99.90;;;;;;5029936;28;20488;-50
2023/10/14 04:53:26;;;;;;;8.45;1.73;;;8.20;99.90;;;;;;5030237;28;20027;-53
2023/10/14 04:55:53;;;;;;;2.50;0.82;;;8.10;99.90;;;;;;5028733;28;20025;-54
2023/10/14 04:58:25;;;;;;;3.85;0.85;;;8.10;99.90;;;;;;5030158;28;20026;-57
2023/10/14 05:00:56;;;;;;;1.67;0.60;;;8.20;99.90;;;;;;5030121;28;20038;-53
2023/10/14 05:03:22;;;;;;;3.60;0.65;;;8.10;99.90;;;;;;5029876;28;20397;-55
2023/10/14 05:05:51;;;;;;;5.45;0.95;;;8.10;99.90;;;;;;5019199;28;20037;-58
2023/10/14 05:08:24;;;;;;;1.80;0.90;;;8.10;99.90;;;;;;5030137;28;20763;-56
2023/10/14 05:10:51;;;;;;;2.05;0.90;;;8.00;99.90;;;;;;5030549;28;20388;-53
2023/10/14 05:13:19;;;;;;;3.63;1.38;;;8.10;99.90;;;;;;5022250;28;20061;-57
2023/10/14 05:15:53;;;;;;;4.75;1.10;;;8.10;99.90;;;;;;5032572;28;20116;-54
2023/10/14 05:18:28;;;;;;;5.13;1.10;;;8.10;99.90;;;;;;5031697;28;20091;-53
2023/10/14 05:21:12;;;;;;;3.38;0.77;;;8.00;99.90;;;;;;5033439;28;20071;-52
2023/10/14 05:23:41;;;;;;;2.05;0.70;;;8.00;99.90;;;;;;5033386;28;20033;-56
2023/10/14 05:26:07;;;;;;;3.42;0.93;;;8.00;99.90;;;;;;5033426;28;20045;-53
2023/10/14 05:28:36;;;;;;;2.70;1.08;;;8.00;99.90;;;;;;5031649;28;20392;-55
2023/10/14 05:31:08;;;;;;;5.07;1.03;;;8.10;99.90;;;;;;5031354;28;20544;-56
2023/10/14 05:33:34;;;;;;;3.10;0.80;;;8.10;99.90;;;;;;5026247;28;20302;-54
2023/10/14 05:36:05;;;;;;;3.25;0.85;;;8.10;99.90;;;;;;5033187;28;20036;-50
2023/10/14 05:38:31;;;;;;;9.13;1.52;;;8.10;99.90;;;;;;5033357;28;20034;-54
2023/10/14 05:41:01;;;;;;;2.15;1.10;;;8.10;99.90;;;;;;5032773;28;20075;-50
2023/10/14 05:43:26;;;;;;;5.18;1.05;;;8.00;99.90;;;;;;5031183;28;20365;-49
2023/10/14 05:45:53;;;;;;;4.30;0.82;;;8.00;99.90;;;;;;5028194;28;20029;-52
2023/10/14 05:48:21;;;;;;;3.58;1.17;;;8.10;99.90;;;;;;5033238;28;20025;-58
2023/10/14 05:50:49;;;;;;;2.95;0.80;;;7.90;99.90;;;;;;5023685;28;20492;-55
2023/10/14 05:53:16;;;;;;;4.05;1.10;;;7.90;99.90;;;;;;5032576;28;20038;-47
2023/10/14 05:55:47;;;;;;;2.55;1.38;;;8.00;99.90;;;;;;5032180;28;20030;-57
2023/10/14 05:58:12;;;;;;;5.18;0.93;;;8.00;99.90;;;;;;5031103;28;20032;-56
2023/10/14 06:00:41;;;;;;;5.95;1.10;;;7.90;99.90;;;;;;5031173;28;20108;-53
2023/10/14 06:03:11;;;;;;;3.05;0.95;;;7.90;99.90;;;;;;5031403;28;20101;-54
2023/10/14 06:05:37;;;;;;;3.88;0.93;;;7.90;99.90;;;;;;5032275;28;20041;-53
2023/10/14 06:08:06;;;;;;;3.58;1.02;;;7.80;99.90;;;;;;5025239;28;20032;-47
2023/10/14 06:10:36;;;;;;;3.78;1.10;;;7.80;99.90;;;;;;5028373;28;20025;-51
2023/10/14 06:13:05;;;;;;;4.70;0.88;;;7.80;99.90;;;;;;5031111;28;20366;-52
2023/10/14 06:15:36;;;;;;;3.28;0.95;;;7.80;99.90;;;;;;5032041;28;20025;-56
2023/10/14 06:18:04;;;;;;;2.65;0.70;;;7.80;99.90;;;;;;5031080;28;20025;-50
2023/10/14 06:20:32;;;;;;;4.07;1.30;;;7.80;99.90;;;;;;5032002;28;20400;-55
2023/10/14 06:22:59;;;;;;;3.83;1.08;;;7.80;99.90;;;;;;5031420;28;20115;-58
2023/10/14 06:25:30;;;;;;;1.52;0.73;;;7.80;99.90;;;;;;5032139;28;20385;-58
2023/10/14 06:27:57;;;;;;;3.22;0.85;;;7.90;99.90;;;;;;5030644;28;20508;-57
2023/10/14 06:30:23;;;;;;;3.90;1.15;;;7.90;99.90;;;;;;5026457;28;20480;-55
2023/10/14 06:33:03;;;;;;;5.43;1.10;;;7.90;99.90;;;;;;5030712;28;20029;-57
2023/10/14 06:35:33;;;;;;;3.05;0.88;;;7.90;99.90;;;;;;5026125;28;20048;-59
2023/10/14 06:37:59;;;;;;;5.00;0.90;;;7.90;99.90;;;;;;5028602;28;20053;-57
2023/10/14 06:40:32;;;;;;;1.88;0.77;;;7.90;99.90;;;;;;5028564;28;20033;-58
2023/10/14 06:43:00;;;;;;;1.80;0.98;;;7.90;99.90;;;;;;5027376;28;20029;-57
2023/10/14 06:45:31;;;;;;;4.25;1.05;;;7.90;99.90;;;;;;5031386;28;20408;-57
2023/10/14 06:48:03;;;;;;;1.85;0.80;;;7.90;99.90;;;;;;5030727;28;20026;-58
2023/10/14 06:50:30;;;;;;;3.10;0.57;;;7.90;99.90;;;;;;5029850;28;20033;-59
2023/10/14 06:52:59;;;;;;;5.30;0.90;;;8.00;99.90;;;;;;5026759;28;20104;-56
2023/10/14 06:55:33;;;;;;;8.00;1.83;;;8.00;99.90;;;;;;5023230;28;20464;-57
2023/10/14 06:57:59;;;;;;;2.63;0.98;;;8.00;99.90;;;;;;5023668;28;20048;-56
2023/10/14 07:00:30;;;;;;;7.55;1.05;;;8.10;99.90;;;;;;5031091;28;20408;-59
2023/10/14 07:03:00;;;;;;;3.83;1.10;;;8.10;99.90;;;;;;5030119;28;20121;-58
2023/10/14 07:05:29;;;;;;;5.40;1.27;;;8.10;99.90;;;;;;5031222;28;20056;-59
2023/10/14 07:07:58;;;;;;;5.18;1.60;;;8.20;99.90;;;;;;5024913;28;20024;-55
2023/10/14 07:10:27;;;;;;;4.80;1.40;;;8.20;99.90;;;;;;5029519;28;20021;-58
2023/10/14 07:13:00;;;;;;;2.72;1.38;;;8.30;99.90;;;;;;5020665;28;20022;-57
2023/10/14 07:15:31;;;;;;;2.63;0.85;;;8.30;99.90;;;;;;5029782;28;20491;-55
2023/10/14 07:17:57;;;;;;;3.22;1.30;;;8.30;99.90;;;;;;5028567;28;20018;-54
2023/10/14 07:20:22;;;;;;;4.55;1.10;;;8.40;99.90;;;;;;5028725;28;20030;-57
2023/10/14 07:22:49;;;;;;;3.70;1.38;;;8.40;99.90;;;;;;5029127;28;20021;-58
2023/10/14 07:25:16;;;;;;;4.63;1.10;;;8.40;99.90;;;;;;5029298;28;20389;-55
2023/10/14 07:27:41;;;;;;;2.33;0.95;;;8.50;99.90;;;;;;5029326;28;20022;-56
2023/10/14 07:30:14;;;;;;;6.50;1.70;;;8.50;99.90;;;;;;5028926;28;20037;-53
2023/10/14 07:32:44;;;;;;;5.07;1.00;;;8.50;99.90;;;;;;5029687;28;20041;-57
2023/10/14 07:35:14;;;;;;;3.90;0.98;;;8.50;99.90;;;;;;5030867;28;20029;-53
2023/10/14 07:37:51;;;;;;;3.00;1.15;;;8.60;99.90;;;;;;5030617;28;20017;-59
2023/10/14 07:40:24;;;;;;;5.40;1.35;;;8.70;99.90;;;;;;5018211;28;20026;-54
2023/10/14 07:42:52;;;;;;;4.63;1.23;;;8.70;99.90;;;;;;5030631;28;20030;-57
2023/10/14 07:45:18;;;;;;;2.30;1.00;;;8.80;99.90;;;;;;5031046;28;20049;-56
2023/10/14 07:47:44;;;;;;;4.57;1.00;;;8.90;99.90;;;;;;5030916;28;20021;-60
2023/10/14 07:50:11;;;;;;;5.30;1.75;;;8.90;99.90;;;;;;5030814;28;20029;-54
2023/10/14 07:52:39;;;;;;;4.65;1.20;;;8.90;99.90;;;;;;5030937;28;20409;-54
2023/10/14 07:55:10;;;;;;;4.72;1.15;;;9.00;99.90;;;;;;5030990;28;20060;-53
2023/10/14 07:57:40;;;;;;;3.47;1.05;;;9.10;99.90;;;;;;5030984;28;20022;-58
2023/10/14 08:00:12;;;;;;;3.53;1.25;;;9.20;99.90;;;;;;5030633;28;20069;-57
2023/10/14 08:02:38;;;;;;;4.40;1.20;;;9.20;99.90;;;;;;5030797;28;20459;-55
2023/10/14 08:05:06;;;;;;;3.70;1.10;;;9.30;99.90;;;;;;5030441;28;20041;-55
2023/10/14 08:07:34;;;;;;;2.97;1.05;;;9.50;99.90;;;;;;5030890;28;20079;-58
2023/10/14 08:10:16;;;;;;;3.60;1.20;;;9.50;99.90;;;;;;5030753;28;20068;-58
2023/10/14 08:12:46;;;;;;;7.78;1.17;;;9.60;99.90;;;;;;5030751;28;20022;-60
2023/10/14 08:15:13;;;;;;;3.90;1.10;;;9.80;99.90;;;;;;5030452;28;20060;-60
2023/10/14 08:17:42;;;;;;;3.85;0.93;;;10.00;99.90;;;;;;5031023;28;20041;-58
2023/10/14 08:20:16;;;;;;;5.10;1.20;;;10.30;99.90;;;;;;5030786;28;20121;-59
2023/10/14 08:22:46;;;;;;;8.55;1.20;;;10.70;99.90;;;;;;5030789;28;20449;-59
2023/10/14 08:25:18;;;;;;;8.27;1.42;;;11.10;99.90;;;;;;5030534;28;20091;-59
2023/10/14 08:27:46;;;;;;;2.55;0.82;;;11.60;99.90;;;;;;5030446;28;20017;-58
2023/10/14 08:30:12;;;;;;;3.72;1.58;;;12.10;99.90;;;;;;5030615;28;20025;-60
2023/10/14 08:32:40;;;;;;;5.25;1.23;;;12.40;99.90;;;;;;5030281;28;20054;-58
2023/10/14 08:35:17;;;;;;;4.40;1.35;;;12.60;99.90;;;;;;5030539;28;20112;-59
2023/10/14 08:37:49;;;;;;;2.83;0.68;;;12.80;99.90;;;;;;5030334;28;20080;-58
2023/10/14 08:40:26;;;;;;;3.70;0.73;;;13.20;99.90;;;;;;5030490;28;20021;-58
2023/10/14 08:42:55;;;;;;;8.05;1.70;;;13.80;99.90;;;;;;5028989;28;20091;-58
2023/10/14 08:45:22;;;;;;;1.20;0.70;;;13.90;99.90;;;;;;5031453;28;20036;-58
2023/10/14 08:47:52;;;;;;;3.53;0.82;;;14.80;99.90;;;;;;5034473;28;20428;-58
2023/10/14 08:50:24;;;;;;;7.03;1.08;;;15.20;99.90;;;;;;5034206;28;20060;-58
2023/10/14 08:52:51;;;;;;;4.38;0.90;;;15.90;99.90;;;;;;5034285;28;20053;-58
2023/10/14 08:55:20;;;;;;;2.90;0.80;;;16.00;99.90;;;;;;5034161;28;20120;-58
2023/10/14 08:57:48;;;;;;;3.92;0.90;;;16.40;99.90;;;;;;5034378;28;20090;-59
2023/10/14 09:00:19;;;;;;;3.42;1.02;;;16.80;99.90;;;;;;5034086;28;20034;-59
2023/10/14 09:02:49;;;;;;;6.82;0.90;;;17.10;99.90;;;;;;5034253;28;20108;-58
2023/10/14 09:05:16;;;;;;;2.03;1.00;;;17.60;99.90;;;;;;5033827;28;20108;-58
2023/10/14 09:07:48;;;;;;;3.15;0.70;;;18.00;99.90;;;;;;5034083;28;20087;-57
2023/10/14 09:10:18;;;;;;;1.60;0.70;;;18.50;99.90;;;;;;5033992;28;20038;-57
2023/10/14 09:13:03;;;;;;;3.25;0.80;;;18.60;99.90;;;;;;5032593;28;20025;-57
2023/10/14 09:15:36;;;;;;;5.85;0.93;;;18.40;99.90;;;;;;5033773;28;20116;-57
2023/10/14 09:18:02;;;;;;;4.60;0.93;;;18.40;99.90;;;;;;5034090;28;20112;-58
2023/10/14 09:20:32;;;;;;;4.10;0.95;;;18.90;99.90;;;;;;5033895;28;20116;-57
2023/10/14 09:23:19;;;;;;;3.28;0.93;;;19.40;99.90;;;;;;5033542;28;20465;-56
2023/10/14 09:25:50;;;;;;;5.38;0.98;;;18.80;99.90;;;;;;5033575;28;20120;-58
2023/10/14 09:28:20;;;;;;;3.85;1.15;;;18.80;99.90;;;;;;5033458;28;20033;-58
2023/10/14 09:30:56;;;;;;;4.50;1.05;;;19.00;99.90;;;;;;5033452;28;20045;-53
2023/10/14 09:33:28;;;;;;;1.33;0.60;;;19.10;99.90;;;;;;5033436;28;20025;-56
2023/10/14 09:35:55;;;;;;;5.35;0.80;;;19.20;99.90;;;;;;5033333;28;20493;-57
2023/10/14 09:38:22;;;;;;;6.22;1.00;;;19.50;99.90;;;;;;5033356;28;20424;-59
2023/10/14 09:40:53;;;;;;;2.60;0.98;;;19.50;99.90;;;;;;5033444;28;20437;-56
2023/10/14 09:43:21;;;;;;;4.20;1.08;;;19.30;99.90;;;;;;5065304;28;20159;-57
2023/10/14 09:45:47;;;;;;;2.17;0.68;;;20.00;99.90;;;;;;5033212;28;20041;-56
2023/10/14 09:48:15;;;;;;;2.55;0.90;;;20.60;99.90;;;;;;5033116;28;20041;-57
2023/10/14 09:50:43;;;;;;;0.75;0.40;;;21.20;99.90;;;;;;5033221;28;20083;-56
2023/10/14 09:53:14;;;;;;;2.63;0.70;;;21.00;99.90;;;;;;5032974;28;20029;-56
2023/10/14 09:55:42;;;;;;;1.55;0.55;;;21.70;99.90;;;;;;5033129;28;20479;-57
2023/10/14 09:58:08;;;;;;;3.78;0.85;;;21.30;99.90;;;;;;5031769;28;20025;-55
2023/10/14 10:00:34;;;;;;;3.03;0.80;;;21.70;99.90;;;;;;5032965;28;20534;-56
2023/10/14 10:03:01;;;;;;;3.78;1.00;;;22.20;99.90;;;;;;5032906;28;20030;-54
2023/10/14 10:05:38;;;;;;;3.47;0.80;;;22.00;99.90;;;;;;5032768;28;20053;-57
2023/10/14 10:08:39;;;;;;;2.28;0.60;;;22.50;98.90;;;;;;5032943;28;20059;-55
2023/10/14 10:11:06;;;;;;;1.60;0.40;;;22.90;99.90;;;;;;5021978;28;20450;-57
2023/10/14 10:13:32;;;;;;;1.30;0.50;;;23.50;99.00;;;;;;5032733;28;20483;-58
2023/10/14 10:16:04;;;;;;;1.65;0.57;;;23.10;98.80;;;;;;5032685;28;20072;-54
2023/10/14 10:18:56;;;;;;;2.45;1.05;;;22.70;99.00;;;;;;5032854;28;20388;-57
2023/10/14 10:21:31;;;;;;;4.85;0.85;;;22.90;99.10;;;;;;5032703;28;20105;-58
2023/10/14 10:24:15;;;;;;;1.13;0.50;;;22.50;97.30;;;;;;5032440;28;20060;-53
2023/10/14 10:26:57;;;;;;;3.30;0.95;;;23.00;97.70;;;;;;5032697;28;20132;-53
2023/10/14 10:29:22;;;;;;;2.45;1.02;;;22.90;97.40;;;;;;5032303;28;20033;-54
2023/10/14 10:32:16;;;;;;;2.00;0.68;;;22.20;98.20;;;;;;5032357;28;20042;-54
2023/10/14 10:35:07;;;;;;;1.55;0.50;;;22.00;99.20;;;;;;5032284;28;20029;-56
2023/10/14 10:37:39;;;;;;;2.85;0.90;;;21.00;98.10;;;;;;5032378;28;20046;-56
2023/10/14 10:40:11;;;;;;;2.90;0.50;;;20.50;99.90;;;;;;5032163;28;20025;-57
2023/10/14 10:42:37;;;;;;;3.38;0.65;;;19.80;99.90;;;;;;5032311;28;20076;-56
2023/10/14 10:45:20;;;;;;;2.28;0.63;;;19.70;99.90;;;;;;5032067;28;20396;-55
2023/10/14 10:47:56;;;;;;;3.35;0.80;;;20.00;99.90;;;;;;5029136;28;20040;-55
2023/10/14 10:50:34;;;;;;;2.10;0.60;;;20.00;99.90;;;;;;5027023;28;20036;-59
2023/10/14 10:53:10;;;;;;;2.23;0.57;;;20.40;99.90;;;;;;5033159;28;20041;-55
2023/10/14 10:55:41;;;;;;;3.08;0.60;;;20.50;99.70;;;;;;5029464;28;20521;-59
2023/10/14 10:58:08;;;;;;;5.25;0.90;;;21.10;99.90;;;;;;5027102;28;20061;-59
2023/10/14 11:00:34;;;;;;;3.78;0.60;;;22.00;99.60;;;;;;5027538;28;20029;-59
2023/10/14 11:03:01;;;;;;;3.83;0.80;;;22.80;98.50;;;;;;5030707;28;20040;-59
2023/10/14 11:05:29;;;;;;;5.25;0.60;;;23.00;96.20;;;;;;5031466;28;20535;-59
2023/10/14 11:07:56;;;;;;;3.95;0.65;;;22.70;96.90;;;;;;5028875;28;20025;-59
2023/10/14 11:10:26;;;;;;;1.92;0.68;;;22.70;95.00;;;;;;5029731;28;20455;-59
2023/10/14 11:12:54;;;;;;;3.03;0.60;;;21.80;96.00;;;;;;5030979;28;20108;-59
2023/10/14 11:15:22;;;;;;;3.45;0.60;;;21.60;99.30;;;;;;5026206;28;20037;-59
2023/10/14 11:17:57;;;;;;;4.97;0.90;;;21.50;97.50;;;;;;5027611;28;20082;-57
2023/10/14 11:20:28;;;;;;;4.93;0.65;;;21.50;99.30;;;;;;5031000;28;20048;-58
2023/10/14 11:22:55;;;;;;;3.42;0.65;;;22.20;97.70;;;;;;5029270;28;20079;-58
2023/10/14 11:25:22;;;;;;;3.50;0.90;;;22.20;99.60;;;;;;5028995;28;20132;-56
2023/10/14 11:27:48;;;;;;;2.92;0.57;;;22.00;97.00;;;;;;5027311;28;20025;-58
2023/10/14 11:30:15;;;;;;;3.83;0.60;;;22.40;98.00;;;;;;5031124;28;20033;-57
2023/10/14 11:32:49;;;;;;;1.25;0.43;;;22.50;98.30;;;;;;5030599;28;20038;-57
2023/10/14 11:35:21;;;;;;;2.72;0.50;;;23.00;96.80;;;;;;5031069;28;20029;-57
2023/10/14 11:37:55;;;;;;;1.67;0.40;;;23.30;95.00;;;;;;5020910;28;20031;-57
2023/10/14 11:40:25;;;;;;;2.53;0.70;;;22.70;95.60;;;;;;5029631;28;20159;-58
2023/10/14 11:42:55;;;;;;;1.02;0.50;;;21.50;94.40;;;;;;5030678;28;20025;-58
2023/10/14 11:45:20;;;;;;;;;;;20.40;95.90;;;;;;5031185;28;20492;-56
2023/10/14 11:47:46;;;;;;;3.83;0.40;;;19.40;96.00;;;;;;5030830;28;19909;-55
2023/10/14 11:50:13;;;;;;;1.20;0.50;;;18.60;97.90;;;;;;5028851;28;20046;-56
2023/10/14 11:52:43;;;;;;;2.05;0.57;;;17.80;97.80;;;;;;5030844;28;20387;-57
2023/10/14 11:55:20;;;;;;;4.15;0.98;;;17.50;99.30;;;;;;5030332;28;20034;-57
2023/10/14 11:57:49;;;;;;;2.10;0.65;;;17.70;99.90;;;;;;5030875;28;20739;-56
2023/10/14 12:00:20;;;;;;;0.60;0.40;;;17.60;99.90;;;;;;5028839;28;20017;-58
2023/10/14 12:02:49;;;;;;;3.47;0.50;;;17.40;99.90;;;;;;5030820;28;20025;-58
2023/10/14 12:05:19;;;;;;;;;;;17.10;99.90;;;;;;5028960;28;20080;-58
2023/10/14 12:07:47;;;;;;;2.55;0.52;;;17.60;99.90;;;;;;5030080;28;20319;-58
2023/10/14 12:10:12;;;;;;;1.77;0.55;;;18.10;99.90;;;;;;5018955;28;20030;-58
2023/10/14 12:12:39;;;;;;;1.50;0.57;;;18.90;99.90;;;;;;5030347;28;20040;-58
2023/10/14 12:15:08;;;;;;;1.42;0.35;;;19.40;99.80;;;;;;5030413;28;20048;-59
2023/10/14 12:17:34;;;;;;;;;;;20.40;98.90;;;;;;5023143;28;20028;-58
2023/10/14 12:20:06;;;;;;;1.00;0.40;;;20.90;98.20;;;;;;5020312;28;19976;-59
2023/10/14 12:22:32;;;;;;;1.95;0.52;;;21.00;95.50;;;;;;5022939;28;20494;-57
2023/10/14 12:24:59;;;;;;;3.33;0.60;;;21.00;96.40;;;;;;5020821;28;20069;-57
2023/10/14 12:27:28;;;;;;;1.17;0.50;;;20.90;96.40;;;;;;5030118;28;20017;-58
2023/10/14 12:29:54;;;;;;;2.20;0.45;;;20.30;96.00;;;;;;5015114;28;20022;-57
2023/10/14 12:32:20;;;;;;;2.92;0.60;;;19.80;96.90;;;;;;5023561;28;20056;-58
2023/10/14 12:34:48;;;;;;;2.67;0.88;;;19.50;97.80;;;;;;5029715;28;20018;-57
2023/10/14 12:37:21;;;;;;;1.50;0.45;;;19.40;98.10;;;;;;5029572;28;20030;-57
2023/10/14 12:39:53;;;;;;;0.68;0.30;;;19.40;97.50;;;;;;5029668;28;20026;-58
2023/10/14 12:42:23;;;;;;;2.08;1.02;;;19.50;98.20;;;;;;5028180;28;20140;-57
2023/10/14 12:44:52;;;;;;;1.67;0.50;;;19.80;98.90;;;;;;5027983;28;20527;-57
2023/10/14 12:47:23;;;;;;;1.83;0.47;;;19.90;99.20;;;;;;5026397;28;20068;-57
2023/10/14 12:49:50;;;;;;;1.85;0.52;;;19.60;97.80;;;;;;5026117;28;20037;-60
2023/10/14 12:52:19;;;;;;;2.33;0.65;;;19.00;95.10;;;;;;5028566;28;20033;-59
2023/10/14 12:54:51;;;;;;;1.85;0.40;;;18.40;96.40;;;;;;5026522;28;20120;-59
2023/10/14 12:57:18;;;;;;;1.00;0.50;;;17.80;98.50;;;;;;5029704;28;20055;-58
2023/10/14 12:59:44;;;;;;;0.88;0.40;;;17.60;96.50;;;;;;5030019;28;20558;-59
2023/10/14 13:02:09;;;;;;;2.70;0.50;;;17.30;99.00;;;;;;5028144;28;20057;-59
2023/10/14 13:04:38;;;;;;;0.98;0.25;;;16.80;97.60;;;;;;5029172;28;20032;-58
2023/10/14 13:07:08;;;;;;;1.33;0.47;;;16.60;98.50;;;;;;5029646;28;20111;-59
2023/10/14 13:09:35;;;;;;;0.90;0.40;;;16.30;98.90;;;;;;5029794;28;20033;-59
2023/10/14 13:12:08;;;;;;;2.63;0.70;;;16.10;99.90;;;;;;5030037;28;20755;-59
2023/10/14 13:14:37;;;;;;;1.10;0.40;;;16.30;99.90;;;;;;5016963;28;20026;-59
2023/10/14 13:17:03;;;;;;;5.35;1.63;;;16.60;99.90;;;;;;5023778;28;20433;-57
2023/10/14 13:19:35;;;;;;;1.05;0.45;;;17.10;99.90;;;;;;5024557;28;20412;-57
2023/10/14 13:22:02;;;;;;;1.13;0.43;;;16.90;98.90;;;;;;5026877;28;20514;-57
2023/10/14 13:24:28;;;;;;;0.90;0.50;;;16.80;98.70;;;;;;5028293;28;20032;-56
2023/10/14 13:26:53;;;;;;;1.48;0.50;;;16.50;98.50;;;;;;5017471;28;20038;-57
2023/10/14 13:29:19;;;;;;;1.38;0.35;;;16.40;99.40;;;;;;5028895;28;20420;-55
2023/10/14 13:31:46;;;;;;;3.83;0.50;;;16.20;99.20;;;;;;5031463;28;20076;-56
2023/10/14 13:34:12;;;;;;;1.08;0.40;;;15.90;98.80;;;;;;5030953;28;20548;-58
2023/10/14 13:36:37;;;;;;;1.17;0.50;;;15.60;99.50;;;;;;5032676;28;20084;-58
2023/10/14 13:39:07;;;;;;;1.13;0.50;;;15.70;99.90;;;;;;5029173;28;20025;-56
2023/10/14 13:41:32;;;;;;;;;;;15.50;99.90;;;;;;5029568;28;20079;-57